Hayase Maru — JD2583 — position and weather

sailwx.info

Track history (hours):
 
Tides and Currents Weather Stations Pressure Air Temp Water Temp Dewpoint Dewpoint Depression Visibility Wind Speed Wind Dir Waves Ship Positions

Hayase Maru

Last reported at 2014-Oct-31 07:33 UTC. Time now 2014-Nov-01 07:47 UTC.
Position N 35°15' E 139°46'.

Length 73 m; draft 4.1 m.

Type: Ship. MMSI: 431000395.

Date/timePositionNaut miles runAvg speedWind from/ knotsBaromVisibWave heightAir tempDewpointWater temp
2014-Oct-31 07:33N 35°15' E 139°46'1010.5
2014-Oct-31 06:33N 35°26' E 139°44'5 5.4
2014-Oct-31 05:33N 35°31' E 139°45'0 0.0
2014-Oct-31 04:33N 35°31' E 139°45'0 0.0
2014-Oct-31 03:33N 35°31' E 139°45'0 0.0
2014-Oct-31 02:33N 35°31' E 139°45'0 0.0
2014-Oct-31 01:30N 35°31' E 139°45'0 0.0
2014-Oct-31 00:30N 35°31' E 139°45'0 0.0
2014-Oct-30 23:33N 35°31' E 139°45'0 0.1
2014-Oct-30 22:34N 35°31' E 139°45'5 5.3
2014-Oct-30 21:33N 35°26' E 139°42'3 3.4
2014-Oct-30 20:33N 35°29' E 139°39'0 0.0
2014-Oct-30 19:33N 35°29' E 139°39'0 0.0
2014-Oct-30 18:33N 35°29' E 139°39'0 0.0
2014-Oct-30 17:33N 35°29' E 139°39'0 0.0
2014-Oct-30 16:33N 35°29' E 139°39'0 0.0
2014-Oct-30 15:33N 35°29' E 139°39'0 0.0
2014-Oct-30 14:33N 35°29' E 139°39'0 0.0
2014-Oct-30 13:33N 35°29' E 139°39'0 0.0
2014-Oct-30 12:30N 35°29' E 139°39'0 0.0
2014-Oct-30 11:33N 35°29' E 139°39'0 0.0
2014-Oct-30 10:33N 35°29' E 139°39'0 0.0
2014-Oct-30 09:33N 35°29' E 139°39'0 0.0
2014-Oct-30 08:30N 35°29' E 139°39'0 0.0
2014-Oct-30 07:33N 35°29' E 139°39'0 0.0
2014-Oct-30 06:30N 35°29' E 139°39'0 0.0
2014-Oct-30 05:33N 35°29' E 139°39'0 0.0
2014-Oct-30 04:33N 35°29' E 139°39'0 0.0
2014-Oct-30 03:33N 35°29' E 139°39'6 6.3
2014-Oct-30 02:33N 35°26' E 139°46'6 6.0
2014-Oct-30 01:32N 35°22' E 139°51'0 0.0
2014-Oct-30 00:29N 35°22' E 139°51'0 0.0
2014-Oct-29 23:23N 35°22' E 139°51'0 0.0
2014-Oct-29 22:29N 35°22' E 139°51'0 0.1
2014-Oct-29 21:32N 35°21' E 139°51'0 0.0
2014-Oct-29 20:27N 35°22' E 139°51'2 1.8
2014-Oct-29 19:32N 35°22' E 139°49'0 0.0
2014-Oct-29 18:32N 35°22' E 139°49'1 0.6
2014-Oct-29 17:33N 35°22' E 139°48'7 7.4
2014-Oct-29 16:33N 35°15' E 139°47'8 0.2
2014-Oct-28 04:33N 35°22' E 139°42'1411.3
2014-Oct-28 03:16N 35°35' E 139°51'1 0.3
2014-Oct-27 22:33N 35°36' E 139°51'4 0.3
2014-Oct-27 07:32N 35°32' E 139°53'1111.5
2014-Oct-27 06:33N 35°22' E 139°45'1111.1
2014-Oct-27 05:31N 35°11' E 139°47'  
2014-Oct-23 00:33N 34°38' E 134°58'10 9.6
2014-Oct-22 23:33N 34°29' E 135°04'1412.0
2014-Oct-22 22:24N 34°16' E 134°59'1011.4
2014-Oct-22 21:33N 34°07' E 135°00'238 9.0
2014-Oct-21 19:07N 35°07' E 139°40'5 9.9
2014-Oct-21 18:33N 35°11' E 139°45'9 9.4
2014-Oct-21 17:34N 35°20' E 139°43'6 5.9
2014-Oct-21 16:33N 35°23' E 139°49'3 2.5
2014-Oct-21 15:28N 35°22' E 139°51'0 0.0
2014-Oct-21 14:28N 35°22' E 139°51'0 0.0
2014-Oct-21 13:28N 35°22' E 139°51'0 0.1
2014-Oct-21 12:31N 35°22' E 139°51'0 0.0
2014-Oct-21 11:28N 35°22' E 139°51'0 0.0
2014-Oct-21 10:31N 35°22' E 139°51'0 0.0
2014-Oct-21 09:28N 35°21' E 139°51'0 0.0
2014-Oct-21 08:13N 35°22' E 139°51'  
Track history (hours):
 
Tides and Currents Weather Stations Pressure Air Temp Water Temp Dewpoint Dewpoint Depression Visibility Wind Speed Wind Dir Waves Ship Positions

Hayase Maru

Last reported at 2014-Oct-31 07:33 UTC. Time now 2014-Nov-01 07:47 UTC.
Position N 35°15' E 139°46'.

Length 73 m; draft 4.1 m.

Type: Ship. MMSI: 431000395.

Date/timePositionNaut miles runAvg speedWind from/ knotsBaromVisibWave heightAir tempDewpointWater temp
2014-Oct-31 07:33N 35°15' E 139°46'1010.5
2014-Oct-31 06:33N 35°26' E 139°44'5 5.4
2014-Oct-31 05:33N 35°31' E 139°45'0 0.0
2014-Oct-31 04:33N 35°31' E 139°45'0 0.0
2014-Oct-31 03:33N 35°31' E 139°45'0 0.0
2014-Oct-31 02:33N 35°31' E 139°45'0 0.0
2014-Oct-31 01:30N 35°31' E 139°45'0 0.0
2014-Oct-31 00:30N 35°31' E 139°45'0 0.0
2014-Oct-30 23:33N 35°31' E 139°45'0 0.1
2014-Oct-30 22:34N 35°31' E 139°45'5 5.3
2014-Oct-30 21:33N 35°26' E 139°42'3 3.4
2014-Oct-30 20:33N 35°29' E 139°39'0 0.0
2014-Oct-30 19:33N 35°29' E 139°39'0 0.0
2014-Oct-30 18:33N 35°29' E 139°39'0 0.0
2014-Oct-30 17:33N 35°29' E 139°39'0 0.0
2014-Oct-30 16:33N 35°29' E 139°39'0 0.0
2014-Oct-30 15:33N 35°29' E 139°39'0 0.0
2014-Oct-30 14:33N 35°29' E 139°39'0 0.0
2014-Oct-30 13:33N 35°29' E 139°39'0 0.0
2014-Oct-30 12:30N 35°29' E 139°39'0 0.0
2014-Oct-30 11:33N 35°29' E 139°39'0 0.0
2014-Oct-30 10:33N 35°29' E 139°39'0 0.0
2014-Oct-30 09:33N 35°29' E 139°39'0 0.0
2014-Oct-30 08:30N 35°29' E 139°39'0 0.0
2014-Oct-30 07:33N 35°29' E 139°39'0 0.0
2014-Oct-30 06:30N 35°29' E 139°39'0 0.0
2014-Oct-30 05:33N 35°29' E 139°39'0 0.0
2014-Oct-30 04:33N 35°29' E 139°39'0 0.0
2014-Oct-30 03:33N 35°29' E 139°39'6 6.3
2014-Oct-30 02:33N 35°26' E 139°46'6 6.0
2014-Oct-30 01:32N 35°22' E 139°51'0 0.0
2014-Oct-30 00:29N 35°22' E 139°51'0 0.0
2014-Oct-29 23:23N 35°22' E 139°51'0 0.0
2014-Oct-29 22:29N 35°22' E 139°51'0 0.1
2014-Oct-29 21:32N 35°21' E 139°51'0 0.0
2014-Oct-29 20:27N 35°22' E 139°51'2 1.8
2014-Oct-29 19:32N 35°22' E 139°49'0 0.0
2014-Oct-29 18:32N 35°22' E 139°49'1 0.6
2014-Oct-29 17:33N 35°22' E 139°48'7 7.4
2014-Oct-29 16:33N 35°15' E 139°47'8 0.2
2014-Oct-28 04:33N 35°22' E 139°42'1411.3
2014-Oct-28 03:16N 35°35' E 139°51'1 0.3
2014-Oct-27 22:33N 35°36' E 139°51'4 0.3
2014-Oct-27 07:32N 35°32' E 139°53'1111.5
2014-Oct-27 06:33N 35°22' E 139°45'1111.1
2014-Oct-27 05:31N 35°11' E 139°47'  
2014-Oct-23 00:33N 34°38' E 134°58'10 9.6
2014-Oct-22 23:33N 34°29' E 135°04'1412.0
2014-Oct-22 22:24N 34°16' E 134°59'1011.4
2014-Oct-22 21:33N 34°07' E 135°00'238 9.0
2014-Oct-21 19:07N 35°07' E 139°40'5 9.9
2014-Oct-21 18:33N 35°11' E 139°45'9 9.4
2014-Oct-21 17:34N 35°20' E 139°43'6 5.9
2014-Oct-21 16:33N 35°23' E 139°49'3 2.5
2014-Oct-21 15:28N 35°22' E 139°51'0 0.0
2014-Oct-21 14:28N 35°22' E 139°51'0 0.0
2014-Oct-21 13:28N 35°22' E 139°51'0 0.1
2014-Oct-21 12:31N 35°22' E 139°51'0 0.0
2014-Oct-21 11:28N 35°22' E 139°51'0 0.0
2014-Oct-21 10:31N 35°22' E 139°51'0 0.0
2014-Oct-21 09:28N 35°21' E 139°51'0 0.0
2014-Oct-21 08:13N 35°22' E 139°51'  

Dump ship's entire track history